Time;durP1;ratioP1;P1;durP2;ratioP2;P2;SDS_P1;SDS_P2;PMS_P1;PMS_P2;Temp;Humidity;BMP_temperature;BMP_pressure;BME280_temperature;BME280_humidity;BME280_pressure;Samples;Min_cycle;Max_cycle;Signal;HPM_P1;HPM_P2
2022/06/03 00:02:02;;;;;;;20.57;19.47;;;;;;;;;;5075860;28;20910;-83
2022/06/03 00:04:39;;;;;;;21.10;20.00;;;;;;;;;;5075646;28;20946;-83
2022/06/03 00:07:12;;;;;;;21.40;20.30;;;;;;;;;;5076006;28;20409;-83
2022/06/03 00:09:57;;;;;;;21.10;20.00;;;;;;;;;;5075246;28;20447;-84
2022/06/03 00:12:39;;;;;;;21.53;20.33;;;;;;;;;;5075110;28;20429;-84
2022/06/03 00:15:25;;;;;;;21.07;19.77;;;;;;;;;;5075946;28;20439;-84
2022/06/03 00:17:58;;;;;;;20.73;19.63;;;;;;;;;;5075582;28;20420;-83
2022/06/03 00:20:32;;;;;;;20.23;19.23;;;;;;;;;;5075581;28;20471;-84
2022/06/03 00:23:08;;;;;;;20.63;19.53;;;;;;;;;;5075349;28;20456;-83
2022/06/03 00:25:43;;;;;;;20.80;19.70;;;;;;;;;;5075625;28;20420;-84
2022/06/03 00:28:21;;;;;;;21.13;20.03;;;;;;;;;;5075544;28;20805;-83
2022/06/03 00:30:55;;;;;;;21.60;20.37;;;;;;;;;;5075110;28;20449;-83
2022/06/03 00:33:36;;;;;;;20.60;19.50;;;;;;;;;;5075100;28;20394;-83
2022/06/03 00:36:21;;;;;;;21.03;19.93;;;;;;;;;;5057935;28;20434;-83
2022/06/03 00:39:02;;;;;;;20.73;19.63;;;;;;;;;;5075077;28;20449;-84
2022/06/03 00:41:37;;;;;;;20.50;19.40;;;;;;;;;;5075038;28;20405;-83
2022/06/03 00:44:26;;;;;;;21.40;20.30;;;;;;;;;;5075047;28;20482;-84
2022/06/03 00:47:02;;;;;;;20.53;19.43;;;;;;;;;;5075414;28;20492;-83
2022/06/03 00:49:39;;;;;;;20.83;19.67;;;;;;;;;;5075305;28;20420;-84
2022/06/03 00:52:16;;;;;;;20.90;19.67;;;;;;;;;;5075460;28;20446;-84
2022/06/03 00:54:53;;;;;;;20.17;19.07;;;;;;;;;;5075128;28;20413;-84
2022/06/03 00:57:38;;;;;;;20.30;19.27;;;;;;;;;;5074648;28;20405;-84
2022/06/03 01:00:08;;;;;;;20.77;19.67;;;;;;;;;;5074753;28;20500;-83
2022/06/03 01:02:52;;;;;;;20.83;19.63;;;;;;;;;;5074515;28;20446;-84
2022/06/03 01:05:26;;;;;;;20.33;19.23;;;;;;;;;;5074529;28;20413;-84
2022/06/03 01:08:01;;;;;;;20.73;19.53;;;;;;;;;;5074377;28;20428;-84
2022/06/03 01:10:45;;;;;;;20.37;19.27;;;;;;;;;;5074338;28;20436;-84
2022/06/03 01:13:21;;;;;;;20.57;19.37;;;;;;;;;;5074459;28;20442;-84
2022/06/03 01:15:53;;;;;;;20.03;18.93;;;;;;;;;;5074004;28;20444;-84
2022/06/03 01:18:30;;;;;;;21.00;19.90;;;;;;;;;;5074443;28;20456;-84
2022/06/03 01:21:02;;;;;;;20.00;19.00;;;;;;;;;;5073799;28;20449;-84
2022/06/03 01:23:40;;;;;;;20.70;19.60;;;;;;;;;;5074024;28;20461;-84
2022/06/03 01:26:17;;;;;;;21.47;20.30;;;;;;;;;;5074201;28;20766;-83
2022/06/03 01:29:02;;;;;;;21.30;19.87;;;;;;;;;;5074302;28;20428;-84
2022/06/03 01:31:39;;;;;;;21.00;19.80;;;;;;;;;;5061030;28;20462;-83
2022/06/03 01:34:18;;;;;;;20.60;19.50;;;;;;;;;;5073662;28;20405;-83
2022/06/03 01:36:51;;;;;;;21.13;19.90;;;;;;;;;;5073991;28;20454;-84
2022/06/03 01:39:35;;;;;;;21.57;20.27;;;;;;;;;;5073943;28;20413;-83
2022/06/03 01:42:21;;;;;;;21.67;20.47;;;;;;;;;;5073700;28;20416;-83
2022/06/03 01:45:07;;;;;;;21.07;19.87;;;;;;;;;;5073764;28;20468;-83
2022/06/03 01:47:51;;;;;;;21.30;20.10;;;;;;;;;;5073461;28;20424;-83
2022/06/03 01:50:29;;;;;;;21.13;20.00;;;;;;;;;;5073753;28;20446;-83
2022/06/03 01:53:14;;;;;;;20.93;19.63;;;;;;;;;;5073179;28;20771;-84
2022/06/03 01:55:56;;;;;;;21.63;20.13;;;;;;;;;;5073319;28;20421;-83
2022/06/03 01:58:45;;;;;;;20.90;19.80;;;;;;;;;;5073753;28;20412;-82
2022/06/03 02:01:27;;;;;;;21.40;20.17;;;;;;;;;;5040270;28;20782;-83
2022/06/03 02:04:05;;;;;;;21.30;20.20;;;;;;;;;;5073157;28;20507;-84
2022/06/03 02:06:50;;;;;;;21.13;19.93;;;;;;;;;;5073290;28;20944;-84
2022/06/03 02:09:27;;;;;;;21.53;20.43;;;;;;;;;;5073476;28;20913;-83
2022/06/03 02:12:04;;;;;;;20.80;19.67;;;;;;;;;;5073491;28;20442;-84
2022/06/03 02:15:01;;;;;;;21.90;20.57;;;;;;;;;;5073416;28;20421;-84
2022/06/03 02:17:42;;;;;;;20.53;19.43;;;;;;;;;;4991930;28;20477;-84
2022/06/03 02:20:24;;;;;;;21.17;20.00;;;;;;;;;;4991641;28;20509;-83
2022/06/03 02:23:06;;;;;;;21.33;20.23;;;;;;;;;;4992069;28;20438;-84
2022/06/03 02:25:41;;;;;;;21.03;19.93;;;;;;;;;;4991873;28;20428;-84
2022/06/03 02:28:25;;;;;;;20.50;19.40;;;;;;;;;;4991724;28;20437;-84
2022/06/03 02:31:09;;;;;;;21.67;20.47;;;;;;;;;;4991714;28;20438;-84
2022/06/03 02:33:47;;;;;;;21.30;20.10;;;;;;;;;;4991479;28;20472;-86
2022/06/03 02:36:47;;;;;;;21.10;20.00;;;;;;;;;;4991926;28;20517;-83
2022/06/03 02:39:24;;;;;;;21.40;20.30;;;;;;;;;;4991465;28;20823;-84
2022/06/03 02:41:58;;;;;;;21.60;20.00;;;;;;;;;;4991495;28;20433;-83
2022/06/03 02:44:43;;;;;;;21.60;20.40;;;;;;;;;;4975151;28;20576;-84
2022/06/03 02:47:37;;;;;;;21.00;19.90;;;;;;;;;;4991534;28;20493;-83
2022/06/03 02:50:16;;;;;;;20.70;19.60;;;;;;;;;;4952957;28;20882;-84
2022/06/03 02:52:55;;;;;;;21.10;19.80;;;;;;;;;;5004153;28;20426;-84
2022/06/03 02:55:41;;;;;;;21.40;20.23;;;;;;;;;;5011310;28;20415;-83
2022/06/03 02:58:34;;;;;;;21.50;20.13;;;;;;;;;;5011102;28;20473;-83
2022/06/03 03:01:16;;;;;;;21.10;19.90;;;;;;;;;;4982234;28;20436;-84
2022/06/03 03:03:58;;;;;;;20.93;19.83;;;;;;;;;;5010696;28;20454;-83
2022/06/03 03:06:40;;;;;;;20.83;19.73;;;;;;;;;;5011926;28;20815;-84
2022/06/03 03:09:26;;;;;;;21.37;20.20;;;;;;;;;;5014934;28;20444;-84
2022/06/03 03:12:04;;;;;;;20.53;19.43;;;;;;;;;;5014789;28;20437;-84
2022/06/03 03:14:38;;;;;;;21.40;20.10;;;;;;;;;;5015001;28;20436;-83
2022/06/03 03:17:32;;;;;;;22.63;20.70;;;;;;;;;;5014593;28;20468;-84
2022/06/03 03:20:18;;;;;;;21.00;19.90;;;;;;;;;;5014686;28;20459;-84
2022/06/03 03:23:19;;;;;;;21.43;20.27;;;;;;;;;;5014875;28;20428;-84
2022/06/03 03:25:54;;;;;;;20.93;19.83;;;;;;;;;;4964493;28;20489;-84
2022/06/03 03:28:39;;;;;;;22.10;20.90;;;;;;;;;;4995140;28;20445;-83
2022/06/03 03:31:21;;;;;;;21.60;20.43;;;;;;;;;;4995201;28;20450;-83
2022/06/03 03:34:03;;;;;;;20.80;19.60;;;;;;;;;;4978895;28;20465;-84
2022/06/03 03:36:45;;;;;;;21.70;20.50;;;;;;;;;;4994694;28;20465;-84
2022/06/03 03:39:30;;;;;;;21.43;20.23;;;;;;;;;;4964051;28;20497;-84
2022/06/03 03:42:16;;;;;;;21.13;20.03;;;;;;;;;;4995063;28;20450;-84
2022/06/03 03:44:51;;;;;;;21.60;20.37;;;;;;;;;;4994745;28;20504;-84
2022/06/03 03:47:45;;;;;;;21.07;19.77;;;;;;;;;;4994906;28;20412;-84
2022/06/03 03:50:23;;;;;;;21.80;20.40;;;;;;;;;;4936771;29;20430;-84
2022/06/03 03:53:15;;;;;;;21.50;20.20;;;;;;;;;;4936810;29;20419;-84
2022/06/03 03:56:06;;;;;;;20.53;19.40;;;;;;;;;;4942578;28;20456;-84
2022/06/03 03:58:51;;;;;;;21.50;19.90;;;;;;;;;;4994637;28;20804;-84
2022/06/03 04:01:36;;;;;;;21.63;20.43;;;;;;;;;;4994572;28;20454;-84
2022/06/03 04:04:27;;;;;;;21.17;20.00;;;;;;;;;;4994247;28;20501;-84
2022/06/03 04:07:06;;;;;;;21.23;20.10;;;;;;;;;;4994502;28;20528;-84
2022/06/03 04:09:44;;;;;;;21.80;20.30;;;;;;;;;;4994204;28;20438;-84
2022/06/03 04:12:25;;;;;;;21.50;20.30;;;;;;;;;;4994377;28;20511;-84
2022/06/03 04:15:19;;;;;;;20.40;19.30;;;;;;;;;;4994220;28;20765;-84
2022/06/03 04:17:59;;;;;;;20.87;19.67;;;;;;;;;;4993551;28;20409;-84
2022/06/03 04:20:48;;;;;;;20.50;19.40;;;;;;;;;;4994179;28;20492;-84
2022/06/03 04:23:33;;;;;;;20.40;19.40;;;;;;;;;;4994446;28;20413;-83
2022/06/03 04:26:15;;;;;;;21.73;20.53;;;;;;;;;;5023183;28;20499;-84
2022/06/03 04:28:55;;;;;;;21.20;20.10;;;;;;;;;;5055772;28;20418;-83
2022/06/03 04:31:41;;;;;;;21.60;20.30;;;;;;;;;;5055205;28;20443;-83
2022/06/03 04:34:29;;;;;;;21.30;20.10;;;;;;;;;;5055110;28;20447;-84
2022/06/03 04:37:14;;;;;;;20.60;19.50;;;;;;;;;;5055499;28;20439;-83
2022/06/03 04:40:00;;;;;;;21.33;19.93;;;;;;;;;;5055216;28;20410;-83
2022/06/03 04:42:51;;;;;;;20.70;19.60;;;;;;;;;;5055142;28;20410;-84
2022/06/03 04:45:33;;;;;;;20.70;19.50;;;;;;;;;;5054692;28;20475;-83
2022/06/03 04:48:24;;;;;;;21.23;19.57;;;;;;;;;;5055241;28;20439;-84
2022/06/03 04:51:10;;;;;;;20.77;19.57;;;;;;;;;;5032468;28;20460;-84
2022/06/03 04:53:52;;;;;;;21.60;20.50;;;;;;;;;;5055086;28;20772;-84
2022/06/03 04:56:42;;;;;;;22.80;21.57;;;;;;;;;;5042041;28;20451;-84
2022/06/03 04:59:33;;;;;;;22.00;20.60;;;;;;;;;;5054746;28;20450;-84
2022/06/03 05:02:30;;;;;;;22.63;21.43;;;;;;;;;;5054912;28;20807;-84
2022/06/03 05:05:25;;;;;;;22.20;21.00;;;;;;;;;;4954193;29;20495;-79
2022/06/03 05:08:10;;;;;;;22.50;21.30;;;;;;;;;;4953888;29;20478;-84
2022/06/03 05:10:56;;;;;;;22.00;20.53;;;;;;;;;;4954229;29;20455;-84
2022/06/03 05:13:40;;;;;;;21.30;20.20;;;;;;;;;;4954358;29;20462;-84
2022/06/03 05:16:22;;;;;;;21.27;20.07;;;;;;;;;;4954379;29;20471;-84
2022/06/03 05:19:08;;;;;;;21.63;20.43;;;;;;;;;;4933931;29;20479;-84
2022/06/03 05:21:53;;;;;;;22.00;20.73;;;;;;;;;;4973597;28;20431;-84
2022/06/03 05:24:42;;;;;;;21.87;20.67;;;;;;;;;;4973302;28;20449;-84
2022/06/03 05:27:25;;;;;;;22.80;21.10;;;;;;;;;;4973308;28;20916;-84
2022/06/03 05:30:10;;;;;;;21.83;20.63;;;;;;;;;;4972758;28;20466;-83
2022/06/03 05:32:56;;;;;;;21.70;20.57;;;;;;;;;;4931516;28;20429;-85
2022/06/03 05:35:29;;;;;;;21.80;20.70;;;;;;;;;;4973109;28;20442;-84
2022/06/03 05:38:04;;;;;;;21.13;20.03;;;;;;;;;;4974381;28;20425;-83
2022/06/03 05:40:45;;;;;;;21.93;20.67;;;;;;;;;;5066752;28;20419;-84
2022/06/03 05:43:34;;;;;;;21.10;20.00;;;;;;;;;;5073863;28;20819;-84
2022/06/03 05:46:16;;;;;;;23.10;21.80;;;;;;;;;;5074079;28;20488;-84
2022/06/03 05:48:47;;;;;;;21.17;20.07;;;;;;;;;;5073712;28;20457;-84
2022/06/03 05:51:20;;;;;;;22.70;21.40;;;;;;;;;;5073784;28;20442;-84
2022/06/03 05:53:56;;;;;;;22.00;20.80;;;;;;;;;;5073903;28;20442;-84
2022/06/03 05:56:32;;;;;;;22.17;20.90;;;;;;;;;;5066213;28;20438;-84
2022/06/03 05:59:05;;;;;;;22.60;21.30;;;;;;;;;;5073593;28;20979;-84
2022/06/03 06:01:47;;;;;;;22.00;20.80;;;;;;;;;;5073695;28;20405;-84
2022/06/03 06:04:18;;;;;;;23.27;21.97;;;;;;;;;;5073722;28;20449;-84
2022/06/03 06:06:53;;;;;;;22.33;21.13;;;;;;;;;;5073647;28;20434;-83
2022/06/03 06:09:30;;;;;;;22.40;21.10;;;;;;;;;;5073489;28;20939;-84
2022/06/03 06:12:14;;;;;;;21.90;20.70;;;;;;;;;;5073583;28;20438;-84
2022/06/03 06:14:46;;;;;;;21.37;20.17;;;;;;;;;;5073538;28;20421;-84
2022/06/03 06:17:29;;;;;;;20.77;19.67;;;;;;;;;;5073708;28;20470;-84
2022/06/03 06:19:58;;;;;;;21.67;20.47;;;;;;;;;;5073576;28;20453;-84
2022/06/03 06:22:30;;;;;;;22.03;20.63;;;;;;;;;;5073584;28;20458;-84
2022/06/03 06:25:03;;;;;;;21.50;20.40;;;;;;;;;;5073324;28;20480;-85
2022/06/03 06:27:45;;;;;;;21.83;20.50;;;;;;;;;;5073392;28;20409;-84
2022/06/03 06:30:22;;;;;;;21.40;20.20;;;;;;;;;;5073357;28;20447;-84
2022/06/03 06:33:23;;;;;;;21.30;20.10;;;;;;;;;;5073465;28;20470;-84
2022/06/03 06:36:08;;;;;;;20.50;19.40;;;;;;;;;;5073289;28;20446;-83
2022/06/03 06:38:42;;;;;;;21.90;20.50;;;;;;;;;;5073362;28;20444;-84
2022/06/03 06:41:16;;;;;;;22.97;21.67;;;;;;;;;;5072769;28;20813;-83
2022/06/03 06:43:46;;;;;;;21.87;20.57;;;;;;;;;;5073297;28;20411;-84
2022/06/03 06:46:21;;;;;;;22.30;21.00;;;;;;;;;;5072983;28;20489;-84
2022/06/03 06:48:56;;;;;;;21.60;20.50;;;;;;;;;;5073439;28;20420;-84
2022/06/03 06:51:31;;;;;;;22.00;20.80;;;;;;;;;;5073184;28;20469;-85
2022/06/03 06:54:03;;;;;;;21.77;20.57;;;;;;;;;;5072960;28;20405;-84
2022/06/03 06:56:33;;;;;;;22.97;21.67;;;;;;;;;;5073237;28;20450;-84
2022/06/03 06:59:03;;;;;;;22.40;21.20;;;;;;;;;;5073074;28;20878;-83
2022/06/03 07:01:37;;;;;;;22.63;21.40;;;;;;;;;;5073010;28;20443;-84
2022/06/03 07:04:06;;;;;;;22.50;21.30;;;;;;;;;;5073076;28;20446;-84
2022/06/03 07:06:37;;;;;;;21.50;20.27;;;;;;;;;;5073083;28;20815;-84
2022/06/03 07:09:23;;;;;;;22.50;21.30;;;;;;;;;;5072871;28;20449;-84
2022/06/03 07:11:56;;;;;;;21.57;20.33;;;;;;;;;;5073079;28;20439;-84
2022/06/03 07:14:25;;;;;;;22.53;21.23;;;;;;;;;;5073179;28;20910;-84
2022/06/03 07:19:54;;;;;;;22.10;20.90;;;;;;;;;;5010768;28;20498;-84
2022/06/03 07:22:25;;;;;;;23.70;22.40;;;;;;;;;;5011024;28;20433;-84
2022/06/03 07:24:57;;;;;;;21.33;20.23;;;;;;;;;;5011047;28;20420;-85
2022/06/03 07:27:28;;;;;;;22.23;21.03;;;;;;;;;;5011172;28;20404;-85
2022/06/03 07:29:59;;;;;;;21.97;20.77;;;;;;;;;;5010967;28;20789;-84
2022/06/03 07:32:30;;;;;;;22.60;21.20;;;;;;;;;;5011075;28;20437;-85
2022/06/03 07:34:59;;;;;;;21.50;20.27;;;;;;;;;;5010774;28;20958;-85
2022/06/03 07:37:30;;;;;;;21.50;20.30;;;;;;;;;;5010943;28;20472;-84
2022/06/03 07:40:01;;;;;;;21.90;20.70;;;;;;;;;;5011003;28;20437;-84
2022/06/03 07:42:33;;;;;;;23.50;21.97;;;;;;;;;;5010879;28;20511;-84
2022/06/03 07:45:09;;;;;;;22.57;21.33;;;;;;;;;;5011034;28;20407;-84
2022/06/03 07:47:39;;;;;;;22.40;20.90;;;;;;;;;;5011037;28;20801;-84
2022/06/03 07:50:08;;;;;;;22.10;20.80;;;;;;;;;;5010942;28;20981;-85
2022/06/03 07:52:38;;;;;;;21.57;20.40;;;;;;;;;;5013248;28;20909;-85
2022/06/03 07:55:08;;;;;;;22.27;21.07;;;;;;;;;;5027191;28;20451;-84
2022/06/03 07:57:35;;;;;;;22.90;21.60;;;;;;;;;;5075954;28;20438;-84
2022/06/03 08:00:05;;;;;;;22.63;21.33;;;;;;;;;;5076031;28;20405;-84
2022/06/03 08:02:32;;;;;;;22.33;21.13;;;;;;;;;;5076446;28;20423;-84
2022/06/03 08:05:10;;;;;;;23.00;21.40;;;;;;;;;;5075541;28;20445;-84
2022/06/03 08:13:11;;;;;;;22.47;21.17;;;;;;;;;;5075900;28;20413;-84
2022/06/03 08:15:39;;;;;;;22.23;21.03;;;;;;;;;;5075735;28;20478;-84
2022/06/03 08:18:08;;;;;;;22.10;20.90;;;;;;;;;;5075750;28;20883;-84
2022/06/03 08:20:41;;;;;;;22.07;20.87;;;;;;;;;;5075626;28;20474;-84
2022/06/03 08:23:08;;;;;;;22.27;21.03;;;;;;;;;;5075902;28;20418;-84
2022/06/03 08:25:39;;;;;;;22.97;21.67;;;;;;;;;;5057597;28;20492;-84
2022/06/03 08:28:07;;;;;;;22.10;20.80;;;;;;;;;;5075456;28;20420;-84
2022/06/03 08:30:34;;;;;;;22.20;20.80;;;;;;;;;;5075314;28;20469;-83
2022/06/03 08:33:03;;;;;;;22.50;21.20;;;;;;;;;;5075559;28;20469;-84
2022/06/03 08:35:33;;;;;;;21.93;20.63;;;;;;;;;;5075673;28;20413;-84
2022/06/03 08:38:04;;;;;;;23.07;21.77;;;;;;;;;;5075691;28;20413;-84
2022/06/03 08:40:36;;;;;;;23.00;21.60;;;;;;;;;;5075371;28;20409;-84
2022/06/03 08:43:08;;;;;;;22.57;21.27;;;;;;;;;;5075252;28;20435;-84
2022/06/03 08:45:40;;;;;;;23.17;21.80;;;;;;;;;;5074946;28;20492;-84
2022/06/03 08:48:11;;;;;;;22.60;21.27;;;;;;;;;;5075227;28;20443;-84
2022/06/03 08:50:41;;;;;;;22.83;21.40;;;;;;;;;;5074992;28;20417;-84
2022/06/03 08:53:14;;;;;;;23.07;21.77;;;;;;;;;;5074901;28;20442;-85
2022/06/03 08:55:45;;;;;;;23.10;21.73;;;;;;;;;;5074847;28;20438;-84
2022/06/03 08:58:20;;;;;;;23.73;22.43;;;;;;;;;;5074887;28;20405;-85
2022/06/03 09:00:52;;;;;;;23.90;22.50;;;;;;;;;;5074933;28;20456;-84
2022/06/03 09:03:21;;;;;;;23.97;22.47;;;;;;;;;;5074686;28;20446;-84
2022/06/03 09:05:51;;;;;;;23.53;22.23;;;;;;;;;;5074891;28;20535;-85
2022/06/03 09:08:26;;;;;;;23.27;21.97;;;;;;;;;;5074946;28;20445;-85
2022/06/03 09:10:57;;;;;;;23.87;22.57;;;;;;;;;;5074822;28;20441;-84
2022/06/03 09:13:27;;;;;;;23.07;21.77;;;;;;;;;;5074736;28;20438;-85
2022/06/03 09:15:55;;;;;;;24.00;22.43;;;;;;;;;;5074099;28;20473;-84
2022/06/03 09:18:25;;;;;;;23.53;22.13;;;;;;;;;;5074286;28;20447;-85
2022/06/03 09:20:56;;;;;;;23.13;21.83;;;;;;;;;;5074322;28;20492;-84
2022/06/03 09:23:27;;;;;;;23.43;22.07;;;;;;;;;;5074374;28;20433;-85
2022/06/03 09:25:56;;;;;;;24.43;23.03;;;;;;;;;;5074364;28;20481;-84
2022/06/03 09:28:25;;;;;;;23.63;22.33;;;;;;;;;;5074438;28;20406;-84
2022/06/03 09:30:53;;;;;;;23.83;22.33;;;;;;;;;;5074284;28;20894;-85
2022/06/03 09:33:22;;;;;;;22.97;21.60;;;;;;;;;;5073717;28;20916;-84
2022/06/03 09:35:50;;;;;;;23.87;22.57;;;;;;;;;;5074391;28;20447;-84
2022/06/03 09:38:20;;;;;;;24.33;22.83;;;;;;;;;;5073886;28;20424;-84
2022/06/03 09:40:49;;;;;;;23.83;22.43;;;;;;;;;;5074378;28;20452;-84
2022/06/03 09:43:19;;;;;;;23.40;22.10;;;;;;;;;;5056145;28;20504;-84
2022/06/03 09:45:47;;;;;;;24.67;23.17;;;;;;;;;;5074112;28;20486;-84
2022/06/03 09:48:17;;;;;;;24.27;22.97;;;;;;;;;;5074039;28;20445;-85
2022/06/03 09:50:47;;;;;;;24.63;23.27;;;;;;;;;;5074147;28;20420;-84
2022/06/03 09:53:18;;;;;;;24.77;23.37;;;;;;;;;;5073938;28;20462;-84
2022/06/03 09:55:50;;;;;;;25.50;24.00;;;;;;;;;;5074024;28;20445;-84
2022/06/03 09:58:20;;;;;;;25.33;24.03;;;;;;;;;;5073692;28;20417;-84
2022/06/03 10:00:49;;;;;;;26.57;25.00;;;;;;;;;;5073788;28;20445;-84
2022/06/03 10:03:16;;;;;;;24.67;23.27;;;;;;;;;;5073696;28;20438;-85
2022/06/03 10:05:46;;;;;;;24.73;23.33;;;;;;;;;;5073361;28;20405;-85
2022/06/03 10:08:14;;;;;;;25.20;23.80;;;;;;;;;;5073414;28;20425;-84
2022/06/03 10:13:24;;;;;;;25.70;24.20;;;;;;;;;;5040068;28;20405;-85
2022/06/03 10:15:56;;;;;;;25.40;24.00;;;;;;;;;;5073059;28;20460;-85
2022/06/03 10:18:28;;;;;;;25.10;23.80;;;;;;;;;;5073595;28;20752;-85
2022/06/03 10:20:56;;;;;;;26.07;24.60;;;;;;;;;;5073126;28;20461;-84
2022/06/03 10:23:24;;;;;;;25.20;23.90;;;;;;;;;;5073451;28;20438;-84
2022/06/03 10:25:52;;;;;;;26.17;24.77;;;;;;;;;;5073277;28;20485;-84
2022/06/03 10:28:20;;;;;;;24.67;23.37;;;;;;;;;;5073348;28;20532;-84
2022/06/03 10:30:59;;;;;;;25.73;24.33;;;;;;;;;;5073276;28;20417;-84
2022/06/03 10:33:27;;;;;;;26.13;24.63;;;;;;;;;;5073276;28;20413;-85
2022/06/03 10:35:57;;;;;;;25.97;24.57;;;;;;;;;;5073014;28;20405;-84
2022/06/03 10:38:27;;;;;;;26.10;24.60;;;;;;;;;;5073240;28;20908;-83
2022/06/03 10:40:54;;;;;;;25.40;24.00;;;;;;;;;;5072977;28;20448;-85
2022/06/03 10:43:23;;;;;;;27.03;25.53;;;;;;;;;;5072813;28;20786;-84
2022/06/03 10:45:53;;;;;;;25.73;24.33;;;;;;;;;;5073229;28;20456;-85
2022/06/03 10:48:21;;;;;;;25.10;23.80;;;;;;;;;;5073161;28;20459;-84
2022/06/03 10:50:49;;;;;;;26.77;25.37;;;;;;;;;;5073024;28;20420;-85
2022/06/03 11:01:46;;;;;;;23.67;22.37;;;;;;;;;;5072928;28;20894;-84
2022/06/03 11:04:24;;;;;;;23.87;22.37;;;;;;;;;;5072951;28;20441;-84
2022/06/03 11:06:51;;;;;;;24.30;22.90;;;;;;;;;;5073100;28;20452;-84
2022/06/03 11:09:19;;;;;;;24.23;22.83;;;;;;;;;;5072903;28;20446;-84
2022/06/03 11:11:48;;;;;;;24.60;23.20;;;;;;;;;;5073118;28;20449;-84
2022/06/03 11:14:27;;;;;;;23.93;22.53;;;;;;;;;;5073249;28;20439;-84
2022/06/03 11:17:00;;;;;;;22.77;21.47;;;;;;;;;;5072415;28;20484;-84
2022/06/03 11:19:31;;;;;;;22.90;21.60;;;;;;;;;;5072591;28;20806;-84
2022/06/03 11:22:13;;;;;;;23.90;22.50;;;;;;;;;;5073015;28;20413;-85
2022/06/03 11:24:40;;;;;;;23.77;22.47;;;;;;;;;;5056367;28;20429;-83
2022/06/03 11:27:09;;;;;;;23.17;21.87;;;;;;;;;;5074647;28;20477;-84
2022/06/03 11:29:38;;;;;;;23.20;21.80;;;;;;;;;;5076761;28;20409;-84
2022/06/03 11:32:09;;;;;;;22.57;21.27;;;;;;;;;;5076621;28;20448;-85
2022/06/03 11:34:40;;;;;;;24.23;22.80;;;;;;;;;;5076282;28;20409;-84
2022/06/03 11:37:09;;;;;;;23.10;21.80;;;;;;;;;;5076829;28;20787;-85
2022/06/03 11:39:38;;;;;;;23.73;22.40;;;;;;;;;;5076258;28;20910;-84
2022/06/03 11:42:07;;;;;;;23.90;22.50;;;;;;;;;;5076507;28;20421;-85
2022/06/03 11:44:38;;;;;;;22.90;21.70;;;;;;;;;;5076403;28;20421;-85
2022/06/03 11:47:08;;;;;;;21.60;20.40;;;;;;;;;;5076363;28;20505;-84
2022/06/03 11:49:36;;;;;;;23.07;21.77;;;;;;;;;;5076011;28;20420;-85
2022/06/03 11:52:04;;;;;;;23.83;22.43;;;;;;;;;;5058380;28;20804;-85
2022/06/03 11:54:33;;;;;;;23.87;22.57;;;;;;;;;;5076001;28;20409;-84
2022/06/03 11:57:02;;;;;;;24.03;22.23;;;;;;;;;;5076394;28;20489;-85
2022/06/03 11:59:32;;;;;;;23.30;22.00;;;;;;;;;;5076403;28;20418;-85
2022/06/03 12:02:03;;;;;;;24.80;23.27;;;;;;;;;;5076197;28;20405;-84
2022/06/03 12:04:36;;;;;;;23.93;22.63;;;;;;;;;;5075662;28;20405;-83
2022/06/03 12:07:09;;;;;;;24.40;23.10;;;;;;;;;;5076063;28;20482;-84
2022/06/03 12:09:45;;;;;;;24.83;23.43;;;;;;;;;;5075949;28;20428;-85
2022/06/03 12:15:28;;;;;;;23.70;22.40;;;;;;;;;;5075711;28;20436;-85
2022/06/03 12:17:56;;;;;;;25.07;23.67;;;;;;;;;;5076096;28;20409;-84
2022/06/03 12:20:38;;;;;;;24.30;23.00;;;;;;;;;;5075425;28;20527;-85
2022/06/03 12:23:24;;;;;;;24.97;23.67;;;;;;;;;;5076247;28;20409;-85
2022/06/03 12:26:07;;;;;;;25.50;24.10;;;;;;;;;;5075918;28;20417;-84
2022/06/03 12:28:42;;;;;;;23.93;22.60;;;;;;;;;;5075823;28;20918;-84
2022/06/03 12:31:13;;;;;;;23.17;21.87;;;;;;;;;;5075802;28;20423;-83
2022/06/03 12:33:47;;;;;;;23.90;22.60;;;;;;;;;;5075463;28;20907;-85
2022/06/03 12:36:33;;;;;;;24.50;23.10;;;;;;;;;;5075267;28;20847;-84
2022/06/03 12:39:19;;;;;;;24.83;23.53;;;;;;;;;;5075189;28;20409;-84
2022/06/03 12:42:11;;;;;;;25.43;24.03;;;;;;;;;;5075548;28;20410;-85
2022/06/03 12:44:49;;;;;;;24.33;23.03;;;;;;;;;;5075026;28;20956;-85
2022/06/03 12:47:24;;;;;;;25.83;24.53;;;;;;;;;;5074713;28;20994;-85
2022/06/03 12:49:53;;;;;;;24.23;22.93;;;;;;;;;;5075439;28;20416;-85
2022/06/03 12:52:37;;;;;;;24.40;23.10;;;;;;;;;;5075225;28;20801;-85
2022/06/03 12:55:06;;;;;;;25.67;24.27;;;;;;;;;;5075083;28;20420;-85
2022/06/03 12:57:43;;;;;;;24.27;22.87;;;;;;;;;;5075226;28;20446;-84
2022/06/03 13:00:14;;;;;;;24.10;22.70;;;;;;;;;;5074842;28;20803;-85
2022/06/03 13:02:49;;;;;;;23.07;21.87;;;;;;;;;;5074428;28;20426;-85
2022/06/03 13:05:27;;;;;;;24.07;22.77;;;;;;;;;;5074731;28;20437;-85
2022/06/03 13:07:59;;;;;;;24.70;23.30;;;;;;;;;;5074099;28;20525;-88
2022/06/03 13:10:42;;;;;;;23.57;22.27;;;;;;;;;;5074441;28;20450;-84
2022/06/03 13:13:39;;;;;;;23.70;22.40;;;;;;;;;;5052308;28;21243;-85
2022/06/03 13:16:25;;;;;;;24.10;22.70;;;;;;;;;;4993073;28;20477;-84
2022/06/03 13:18:53;;;;;;;23.13;21.73;;;;;;;;;;4993089;28;20468;-85
2022/06/03 13:21:22;;;;;;;24.23;22.83;;;;;;;;;;4974370;28;20490;-84
2022/06/03 13:24:01;;;;;;;23.40;22.10;;;;;;;;;;4973382;28;20795;-85
2022/06/03 13:26:48;;;;;;;23.33;22.03;;;;;;;;;;4973325;28;20806;-84
2022/06/03 13:29:36;;;;;;;23.47;22.07;;;;;;;;;;4973519;28;20542;-84
2022/06/03 13:32:15;;;;;;;24.90;23.50;;;;;;;;;;4973044;28;20454;-84
2022/06/03 13:34:43;;;;;;;25.37;23.87;;;;;;;;;;4973493;28;20409;-84
2022/06/03 13:37:37;;;;;;;23.33;21.93;;;;;;;;;;4973396;28;20498;-84
2022/06/03 13:40:23;;;;;;;23.40;22.00;;;;;;;;;;4973367;28;20451;-84
2022/06/03 13:43:04;;;;;;;23.00;21.70;;;;;;;;;;4972534;28;20456;-84
2022/06/03 13:45:58;;;;;;;24.40;23.00;;;;;;;;;;4973400;28;20451;-85
2022/06/03 13:48:33;;;;;;;24.47;22.97;;;;;;;;;;4934434;29;20838;-84
2022/06/03 13:51:15;;;;;;;23.63;22.23;;;;;;;;;;4958250;28;20518;-84
2022/06/03 13:53:50;;;;;;;24.10;22.70;;;;;;;;;;4973240;28;20433;-85
2022/06/03 13:56:20;;;;;;;24.13;22.73;;;;;;;;;;4973143;28;20552;-85
2022/06/03 13:58:47;;;;;;;24.10;22.60;;;;;;;;;;4972928;28;20460;-85
2022/06/03 14:01:23;;;;;;;24.20;22.73;;;;;;;;;;4972954;28;20444;-85
2022/06/03 14:03:56;;;;;;;24.23;22.63;;;;;;;;;;4972907;28;20435;-85
2022/06/03 14:06:25;;;;;;;24.00;22.50;;;;;;;;;;4972957;28;20431;-85
2022/06/03 14:08:57;;;;;;;24.30;22.90;;;;;;;;;;4972991;28;20463;-85
2022/06/03 14:11:30;;;;;;;24.93;23.43;;;;;;;;;;4973021;28;21117;-85
2022/06/03 14:14:00;;;;;;;24.60;23.10;;;;;;;;;;4972879;28;20490;-85
2022/06/03 14:16:30;;;;;;;24.00;22.60;;;;;;;;;;4972668;28;20481;-84
2022/06/03 14:19:03;;;;;;;24.97;23.47;;;;;;;;;;4972946;28;20934;-83
2022/06/03 14:21:35;;;;;;;25.50;23.90;;;;;;;;;;4991960;28;20462;-85
2022/06/03 14:24:07;;;;;;;25.90;24.30;;;;;;;;;;5027421;28;20441;-85
2022/06/03 14:26:36;;;;;;;23.70;22.30;;;;;;;;;;5073879;28;20410;-85
2022/06/03 14:29:06;;;;;;;25.40;23.73;;;;;;;;;;5073660;28;20453;-85
2022/06/03 14:31:35;;;;;;;24.23;22.83;;;;;;;;;;5073197;28;20447;-84
2022/06/03 14:34:19;;;;;;;24.30;22.83;;;;;;;;;;5073241;28;20417;-85
2022/06/03 14:36:47;;;;;;;25.20;23.50;;;;;;;;;;5073545;28;20417;-85
2022/06/03 14:39:20;;;;;;;24.30;22.80;;;;;;;;;;5072908;28;20421;-84
2022/06/03 14:41:48;;;;;;;23.67;22.17;;;;;;;;;;5073305;28;20409;-85
2022/06/03 14:44:18;;;;;;;24.17;22.77;;;;;;;;;;5073391;28;20435;-85
2022/06/03 14:46:48;;;;;;;24.70;23.20;;;;;;;;;;5055441;28;20525;-85
2022/06/03 14:49:20;;;;;;;24.63;23.13;;;;;;;;;;5073530;28;20934;-85
2022/06/03 14:51:49;;;;;;;25.03;23.53;;;;;;;;;;5073100;28;20445;-84
2022/06/03 14:54:19;;;;;;;24.93;23.43;;;;;;;;;;5073351;28;20465;-84
2022/06/03 14:56:48;;;;;;;24.90;23.40;;;;;;;;;;5073409;28;20530;-85
2022/06/03 14:59:23;;;;;;;24.50;23.10;;;;;;;;;;5073214;28;20434;-85
2022/06/03 15:01:52;;;;;;;23.87;22.43;;;;;;;;;;5076263;28;20409;-85
2022/06/03 15:04:25;;;;;;;24.17;22.77;;;;;;;;;;5077029;28;20412;-85
2022/06/03 15:06:53;;;;;;;24.10;22.50;;;;;;;;;;5077470;28;20457;-85
2022/06/03 15:09:24;;;;;;;24.20;22.70;;;;;;;;;;5077229;28;20489;-85
2022/06/03 15:11:54;;;;;;;24.00;22.50;;;;;;;;;;5076850;28;20413;-84
2022/06/03 15:14:22;;;;;;;23.67;22.27;;;;;;;;;;5077213;28;20416;-85
2022/06/03 15:16:51;;;;;;;23.43;22.13;;;;;;;;;;5058895;28;20440;-85
2022/06/03 15:19:33;;;;;;;24.27;22.87;;;;;;;;;;5077084;28;20496;-85
2022/06/03 15:22:02;;;;;;;24.77;23.27;;;;;;;;;;5074241;28;20465;-85
2022/06/03 15:24:30;;;;;;;25.50;23.97;;;;;;;;;;5076790;28;20767;-85
2022/06/03 15:26:58;;;;;;;25.53;23.97;;;;;;;;;;5076755;28;20409;-85
2022/06/03 15:29:28;;;;;;;25.97;24.37;;;;;;;;;;5076451;28;20504;-84
2022/06/03 15:31:57;;;;;;;25.67;24.17;;;;;;;;;;5076711;28;20435;-84